createdAt,value
2023-04-19T00:01:24.699Z,3.70
2023-04-19T00:08:58.713Z,3.22
2023-04-19T00:16:34.168Z,3.63
2023-04-19T00:24:08.350Z,3.40
2023-04-19T00:31:43.626Z,2.80
2023-04-19T00:39:17.604Z,2.60
2023-04-19T00:46:53.002Z,2.30
2023-04-19T00:54:27.165Z,2.95
2023-04-19T01:02:02.829Z,1.80
2023-04-19T01:09:36.946Z,2.10
2023-04-19T01:17:13.313Z,3.00
2023-04-19T01:24:48.806Z,2.90
2023-04-19T01:32:22.760Z,2.28
2023-04-19T01:39:58.197Z,2.60
2023-04-19T01:47:32.235Z,2.80
2023-04-19T01:55:08.307Z,2.17
2023-04-19T02:10:35.167Z,2.67
2023-04-19T02:18:09.354Z,2.40
2023-04-19T02:25:44.743Z,2.90
2023-04-19T02:33:18.787Z,2.03
2023-04-19T02:40:54.166Z,2.43
2023-04-19T02:48:28.050Z,2.67
2023-04-19T02:56:04.202Z,2.70
2023-04-19T03:03:38.296Z,2.70
2023-04-19T03:11:14.810Z,1.98
2023-04-19T03:18:49.588Z,1.85
2023-04-19T03:26:25.270Z,1.80
2023-04-19T03:33:59.692Z,2.10
2023-04-19T03:41:35.287Z,1.90
2023-04-19T03:49:09.291Z,2.13
2023-04-19T03:56:44.493Z,2.20
2023-04-19T04:04:18.909Z,2.22
2023-04-19T04:19:28.320Z,2.05
2023-04-19T04:27:03.682Z,1.90
2023-04-19T04:34:38.572Z,1.73
2023-04-19T04:42:14.796Z,2.00
2023-04-19T04:49:49.053Z,2.10
2023-04-19T04:57:24.598Z,2.53
2023-04-19T05:04:58.663Z,1.90
2023-04-19T05:12:34.141Z,2.37
2023-04-19T05:20:09.235Z,2.47
2023-04-19T05:28:02.319Z,1.80
2023-04-19T05:35:36.422Z,2.00
2023-04-19T05:43:11.869Z,1.90
2023-04-19T05:50:45.732Z,1.83
2023-04-19T05:58:21.245Z,1.87
2023-04-19T06:05:55.324Z,1.67
2023-04-19T06:21:22.183Z,1.40
2023-04-19T06:28:57.731Z,1.47
2023-04-19T06:36:31.965Z,1.42
2023-04-19T06:44:07.530Z,1.40
2023-04-19T06:51:41.390Z,1.75
2023-04-19T06:59:19.324Z,1.40
2023-04-19T07:06:53.208Z,1.77
2023-04-19T07:14:28.668Z,1.37
2023-04-19T07:22:03.440Z,1.52
2023-04-19T07:37:14.276Z,1.73
2023-04-19T07:44:50.973Z,1.60
2023-04-19T07:52:25.287Z,1.40
2023-04-19T08:00:02.052Z,1.65
2023-04-19T08:07:35.903Z,1.45
2023-04-19T08:15:38.107Z,1.63
2023-04-19T08:23:20.692Z,1.80
2023-04-19T08:31:00.461Z,1.52
2023-04-19T08:38:34.609Z,1.50
2023-04-19T08:46:11.732Z,2.27
2023-04-19T08:53:45.961Z,2.63
2023-04-19T09:25:13.894Z,1.90
2023-04-19T09:32:48.146Z,2.28
2023-04-19T09:40:27.016Z,1.92
2023-04-19T09:48:07.438Z,2.50
2023-04-19T09:55:53.374Z,3.08
2023-04-19T10:03:36.082Z,2.72
2023-04-19T10:11:12.128Z,2.85
2023-04-19T10:18:47.784Z,3.22
2023-04-19T10:26:22.313Z,2.75
2023-04-19T10:33:58.015Z,2.97
2023-04-19T10:41:59.511Z,3.25
2023-04-19T10:49:45.770Z,2.55
2023-04-19T10:57:19.533Z,2.70
2023-04-19T11:05:14.429Z,2.92
2023-04-19T11:12:48.245Z,2.80
2023-04-19T11:20:26.113Z,2.85
2023-04-19T11:28:01.662Z,3.05
2023-04-19T11:35:37.111Z,2.22
2023-04-19T11:43:11.122Z,2.75
2023-04-19T11:57:32.690Z,3.08
2023-04-19T12:05:17.137Z,2.88
2023-04-19T12:12:52.398Z,3.20
2023-04-19T12:20:34.151Z,2.47
2023-04-19T12:28:09.346Z,2.58
2023-04-19T12:35:44.916Z,3.00
2023-04-19T12:43:20.026Z,2.75
2023-04-19T12:50:54.344Z,2.58
2023-04-19T12:58:29.469Z,3.07
2023-04-19T13:06:03.299Z,3.97
2023-04-19T13:13:38.460Z,3.38
2023-04-19T13:21:12.242Z,3.10
2023-04-19T13:28:47.380Z,3.10
2023-04-19T13:36:21.184Z,2.85
2023-04-19T13:43:56.310Z,3.03
2023-04-19T13:51:39.107Z,2.97
2023-04-19T13:59:22.285Z,3.17
2023-04-19T14:06:56.135Z,3.13
2023-04-19T14:14:32.575Z,2.88
2023-04-19T14:22:07.766Z,3.13
2023-04-19T14:29:43.046Z,2.58
2023-04-19T14:37:17.302Z,2.75
2023-04-19T14:44:53.872Z,2.53
2023-04-19T14:52:27.913Z,2.92
2023-04-19T15:00:06.621Z,4.47
2023-04-19T15:07:40.723Z,3.47
2023-04-19T15:15:16.026Z,3.87
2023-04-19T15:22:50.727Z,4.22
2023-04-19T15:30:26.144Z,5.20
2023-04-19T15:38:00.255Z,5.75
2023-04-19T15:45:36.170Z,4.77
2023-04-19T15:53:10.590Z,4.70
2023-04-19T16:00:46.029Z,5.82
2023-04-19T16:08:20.537Z,5.93
2023-04-19T16:15:55.828Z,6.45
2023-04-19T16:23:29.692Z,5.25
2023-04-19T16:31:04.911Z,5.90
2023-04-19T16:38:38.671Z,5.10
2023-04-19T16:46:13.998Z,4.80
2023-04-19T16:53:47.841Z,3.92
2023-04-19T17:01:23.216Z,4.87
2023-04-19T17:08:57.101Z,5.60
2023-04-19T17:16:35.611Z,6.93
2023-04-19T17:24:09.637Z,5.20
2023-04-19T17:31:44.894Z,5.10
2023-04-19T17:39:19.041Z,5.13
2023-04-19T17:46:54.582Z,4.30
2023-04-19T17:54:28.928Z,5.10
2023-04-19T18:02:04.414Z,5.70
2023-04-19T18:09:38.585Z,5.03
2023-04-19T18:17:14.109Z,4.27
2023-04-19T18:24:51.099Z,5.05
2023-04-19T18:32:30.149Z,5.55
2023-04-19T18:40:06.882Z,5.10
2023-04-19T18:47:42.382Z,5.68
2023-04-19T18:55:16.284Z,6.07
2023-04-19T19:02:52.893Z,6.70
2023-04-19T19:18:09.900Z,7.38
2023-04-19T19:25:43.892Z,7.25
2023-04-19T19:33:19.717Z,9.27
2023-04-19T19:41:31.029Z,9.27
2023-04-19T19:48:53.565Z,8.40
2023-04-19T19:56:28.377Z,9.77
2023-04-19T20:04:04.400Z,10.20
2023-04-19T20:11:39.012Z,9.35
2023-04-19T20:19:15.670Z,11.10
2023-04-19T20:26:49.866Z,10.05
2023-04-19T20:34:25.526Z,11.17
2023-04-19T20:41:59.530Z,10.30
2023-04-19T20:49:34.947Z,12.53
2023-04-19T20:57:09.958Z,11.65
2023-04-19T21:04:45.364Z,12.27
2023-04-19T21:12:19.426Z,12.27
2023-04-19T21:19:54.714Z,11.77
2023-04-19T21:27:30.153Z,11.60
2023-04-19T21:35:07.382Z,11.90
2023-04-19T21:42:41.300Z,11.18
2023-04-19T21:50:16.600Z,10.30
2023-04-19T21:57:50.449Z,10.90
2023-04-19T22:05:26.000Z,11.03
2023-04-19T22:13:00.252Z,11.70
2023-04-19T22:28:28.481Z,10.02
2023-04-19T22:36:03.734Z,10.80
2023-04-19T22:43:38.076Z,10.88
2023-04-19T22:51:13.546Z,10.68
2023-04-19T22:58:47.522Z,9.43
2023-04-19T23:06:23.551Z,9.80
2023-04-19T23:13:57.624Z,10.60
2023-04-19T23:21:33.420Z,9.80
2023-04-19T23:29:07.408Z,10.10
2023-04-19T23:36:42.749Z,9.53
2023-04-19T23:44:16.773Z,8.90
2023-04-19T23:51:52.229Z,10.17
2023-04-19T23:59:27.988Z,9.88
